createdAt,value
2023-05-08T00:01:22.881Z,13.04
2023-05-08T00:03:53.232Z,12.97
2023-05-08T00:06:21.633Z,12.95
2023-05-08T00:08:49.578Z,12.96
2023-05-08T00:11:19.423Z,12.99
2023-05-08T00:13:47.498Z,12.98
2023-05-08T00:16:16.784Z,12.89
2023-05-08T00:18:45.084Z,12.88
2023-05-08T00:21:13.462Z,13.00
2023-05-08T00:23:41.655Z,12.91
2023-05-08T00:26:09.933Z,12.79
2023-05-08T00:28:39.987Z,12.92
2023-05-08T00:31:08.229Z,12.83
2023-05-08T00:33:36.785Z,12.84
2023-05-08T00:36:06.472Z,12.81
2023-05-08T00:38:36.156Z,12.81
2023-05-08T00:41:04.700Z,12.78
2023-05-08T00:43:33.626Z,12.77
2023-05-08T00:46:04.070Z,12.79
2023-05-08T00:48:36.401Z,12.72
2023-05-08T00:51:07.907Z,12.70
2023-05-08T00:53:40.252Z,12.62
2023-05-08T00:56:14.753Z,12.64
2023-05-08T00:58:44.640Z,12.69
2023-05-08T01:01:14.375Z,12.64
2023-05-08T01:03:44.939Z,12.57
2023-05-08T01:06:13.454Z,12.60
2023-05-08T01:08:41.535Z,12.59
2023-05-08T01:11:17.693Z,12.59
2023-05-08T01:13:53.203Z,12.57
2023-05-08T01:16:33.835Z,12.57
2023-05-08T01:19:08.289Z,12.46
2023-05-08T01:21:44.158Z,12.47
2023-05-08T01:24:43.649Z,12.42
2023-05-08T01:27:51.386Z,12.44
2023-05-08T01:30:52.060Z,12.32
2023-05-08T01:33:28.045Z,12.39
2023-05-08T01:36:02.627Z,12.32
2023-05-08T01:38:34.513Z,12.32
2023-05-08T01:41:09.866Z,12.26
2023-05-08T01:43:47.232Z,12.24
2023-05-08T01:46:20.705Z,12.16
2023-05-08T01:48:54.834Z,12.21
2023-05-08T01:51:25.457Z,12.21
2023-05-08T01:54:00.838Z,12.18
2023-05-08T01:56:31.469Z,12.14
2023-05-08T01:59:02.595Z,12.15
2023-05-08T02:01:34.501Z,12.06
2023-05-08T02:04:06.642Z,12.03
2023-05-08T02:06:36.049Z,11.98
2023-05-08T02:09:04.653Z,11.96
2023-05-08T02:11:34.770Z,11.91
2023-05-08T02:14:03.974Z,11.83
2023-05-08T02:16:33.680Z,11.81
2023-05-08T02:19:05.893Z,11.78
2023-05-08T02:21:34.825Z,11.80
2023-05-08T02:24:04.140Z,11.79
2023-05-08T02:26:33.839Z,11.77
2023-05-08T02:29:04.468Z,11.76
2023-05-08T02:31:36.222Z,11.76
2023-05-08T02:34:07.755Z,11.73
2023-05-08T02:36:36.751Z,11.68
2023-05-08T02:39:07.023Z,11.68
2023-05-08T02:41:36.543Z,11.67
2023-05-08T02:44:05.776Z,11.66
2023-05-08T02:46:40.576Z,11.63
2023-05-08T02:49:20.423Z,11.60
2023-05-08T02:51:55.542Z,11.60
2023-05-08T02:54:30.817Z,11.55
2023-05-08T02:57:02.961Z,11.50
2023-05-08T02:59:36.970Z,11.46
2023-05-08T03:02:10.674Z,11.44
2023-05-08T03:04:46.332Z,11.38
2023-05-08T03:07:15.418Z,11.37
2023-05-08T03:09:48.518Z,11.36
2023-05-08T03:12:19.452Z,11.32
2023-05-08T03:14:56.471Z,11.33
2023-05-08T03:17:27.248Z,11.28
2023-05-08T03:20:01.733Z,11.28
2023-05-08T03:22:36.885Z,11.24
2023-05-08T03:25:07.467Z,11.18
2023-05-08T03:27:37.785Z,11.15
2023-05-08T03:30:09.487Z,11.19
2023-05-08T03:32:40.156Z,11.20
2023-05-08T03:35:11.308Z,11.18
2023-05-08T03:37:39.286Z,11.11
2023-05-08T03:40:09.364Z,11.16
2023-05-08T03:42:41.616Z,11.18
2023-05-08T03:45:11.787Z,11.19
2023-05-08T03:47:42.476Z,11.11
2023-05-08T03:50:12.745Z,11.13
2023-05-08T03:52:42.113Z,11.14
2023-05-08T03:55:11.200Z,11.11
2023-05-08T03:57:44.821Z,11.12
2023-05-08T04:00:20.020Z,11.11
2023-05-08T04:02:53.670Z,11.13
2023-05-08T04:05:27.199Z,11.20
2023-05-08T04:08:04.379Z,11.17
2023-05-08T04:10:38.376Z,11.19
2023-05-08T04:13:09.988Z,11.19
2023-05-08T04:15:44.952Z,11.21
2023-05-08T04:18:17.552Z,11.29
2023-05-08T04:20:49.316Z,11.32
2023-05-08T04:23:20.813Z,11.33
2023-05-08T04:25:50.568Z,11.33
2023-05-08T04:28:20.084Z,11.33
2023-05-08T04:30:48.381Z,11.42
2023-05-08T04:33:18.560Z,11.38
2023-05-08T04:35:49.359Z,11.50
2023-05-08T04:38:17.443Z,11.55
2023-05-08T04:40:45.777Z,11.58
2023-05-08T04:43:14.014Z,11.66
2023-05-08T04:45:42.154Z,11.72
2023-05-08T04:48:10.834Z,11.69
2023-05-08T04:50:41.388Z,11.76
2023-05-08T04:53:10.877Z,11.78
2023-05-08T04:55:39.277Z,11.84
2023-05-08T04:58:07.435Z,11.97
2023-05-08T05:00:36.037Z,12.06
2023-05-08T05:03:05.384Z,12.13
2023-05-08T05:05:33.630Z,12.24
2023-05-08T05:08:01.689Z,12.31
2023-05-08T05:10:32.061Z,12.41
2023-05-08T05:13:00.642Z,12.48
2023-05-08T05:15:28.770Z,12.51
2023-05-08T05:17:57.467Z,12.52
2023-05-08T05:20:25.678Z,12.59
2023-05-08T05:22:53.687Z,12.68
2023-05-08T05:25:22.013Z,12.77
2023-05-08T05:27:51.533Z,12.78
2023-05-08T05:30:19.906Z,12.82
2023-05-08T05:32:48.221Z,12.86
2023-05-08T05:35:16.604Z,13.07
2023-05-08T05:37:44.894Z,13.12
2023-05-08T05:40:14.502Z,13.07
2023-05-08T05:42:42.643Z,13.20
2023-05-08T05:45:13.441Z,13.07
2023-05-08T05:47:46.367Z,13.33
2023-05-08T05:50:14.980Z,13.19
2023-05-08T05:52:43.451Z,13.33
2023-05-08T05:55:12.407Z,13.31
2023-05-08T05:57:41.427Z,13.43
2023-05-08T06:00:11.361Z,13.59
2023-05-08T06:02:43.985Z,13.70
2023-05-08T06:05:13.189Z,13.80
2023-05-08T06:07:41.827Z,13.93
2023-05-08T06:10:10.531Z,14.06
2023-05-08T06:12:39.018Z,14.10
2023-05-08T06:15:08.430Z,14.14
2023-05-08T06:17:36.640Z,14.20
2023-05-08T06:20:08.385Z,14.37
2023-05-08T06:22:37.711Z,14.33
2023-05-08T06:25:07.530Z,14.42
2023-05-08T06:27:35.712Z,14.26
2023-05-08T06:30:07.917Z,14.68
2023-05-08T06:32:36.222Z,14.68
2023-05-08T06:35:06.033Z,14.84
2023-05-08T06:37:34.096Z,15.09
2023-05-08T06:40:11.757Z,14.94
2023-05-08T06:42:41.718Z,15.11
2023-05-08T06:45:10.843Z,15.06
2023-05-08T06:47:39.175Z,15.15
2023-05-08T06:50:09.524Z,15.19
2023-05-08T06:52:37.861Z,15.65
2023-05-08T06:55:06.596Z,15.95
2023-05-08T06:57:34.646Z,16.19
2023-05-08T07:00:03.003Z,16.35
2023-05-08T07:02:33.437Z,16.56
2023-05-08T07:05:01.807Z,16.48
2023-05-08T07:07:31.481Z,16.75
2023-05-08T07:09:59.644Z,17.02
2023-05-08T07:12:27.948Z,17.29
2023-05-08T07:14:57.892Z,17.43
2023-05-08T07:17:26.847Z,17.55
2023-05-08T07:19:55.047Z,17.50
2023-05-08T07:22:23.468Z,17.79
2023-05-08T07:24:52.858Z,17.83
2023-05-08T07:27:20.930Z,17.93
2023-05-08T07:29:49.310Z,18.19
2023-05-08T07:32:17.699Z,18.00
2023-05-08T07:34:45.744Z,18.31
2023-05-08T07:37:14.105Z,18.34
2023-05-08T07:39:42.143Z,18.13
2023-05-08T07:42:11.842Z,18.17
2023-05-08T07:44:51.019Z,18.45
2023-05-08T07:47:22.926Z,18.64
2023-05-08T07:49:51.554Z,19.01
2023-05-08T07:52:20.016Z,19.40
2023-05-08T07:54:48.124Z,19.64
2023-05-08T07:57:17.801Z,19.35
2023-05-08T07:59:46.997Z,19.11
2023-05-08T08:02:16.143Z,19.46
2023-05-08T08:04:45.956Z,19.40
2023-05-08T08:07:14.914Z,19.31
2023-05-08T08:09:43.844Z,19.57
2023-05-08T08:12:12.566Z,19.39
2023-05-08T08:14:42.510Z,19.57
2023-05-08T08:17:11.025Z,19.97
2023-05-08T08:19:39.998Z,19.96
2023-05-08T08:22:08.373Z,20.44
2023-05-08T08:24:36.884Z,20.53
2023-05-08T08:27:05.788Z,20.67
2023-05-08T08:29:34.453Z,20.27
2023-05-08T08:32:04.292Z,20.27
2023-05-08T08:34:34.642Z,20.65
2023-05-08T08:37:03.296Z,20.88
2023-05-08T08:39:34.338Z,21.02
2023-05-08T08:42:03.018Z,21.00
2023-05-08T08:44:31.512Z,21.09
2023-05-08T08:47:00.812Z,20.87
2023-05-08T08:49:34.689Z,20.92
2023-05-08T08:52:08.031Z,20.93
2023-05-08T08:54:38.583Z,21.04
2023-05-08T08:57:08.366Z,21.34
2023-05-08T08:59:39.934Z,21.52
2023-05-08T09:02:14.760Z,21.57
2023-05-08T09:04:45.092Z,21.48
2023-05-08T09:07:13.603Z,21.55
2023-05-08T09:09:44.432Z,21.98
2023-05-08T09:12:14.135Z,22.11
2023-05-08T09:14:43.039Z,22.23
2023-05-08T09:17:11.811Z,22.36
2023-05-08T09:19:41.842Z,22.23
2023-05-08T09:22:13.120Z,22.24
2023-05-08T09:25:00.544Z,22.21
2023-05-08T09:27:30.026Z,22.28
2023-05-08T09:30:04.369Z,22.74
2023-05-08T09:32:36.140Z,22.74
2023-05-08T09:35:06.827Z,22.96
2023-05-08T09:37:40.227Z,22.95
2023-05-08T09:40:20.328Z,22.14
2023-05-08T09:42:51.898Z,22.82
2023-05-08T09:45:29.460Z,22.37
2023-05-08T09:47:58.751Z,22.80
2023-05-08T09:50:28.196Z,23.18
2023-05-08T09:52:59.121Z,23.05
2023-05-08T09:55:28.265Z,23.21
2023-05-08T09:57:58.653Z,23.53
2023-05-08T10:00:28.149Z,23.60
2023-05-08T10:02:59.019Z,23.87
2023-05-08T10:05:31.781Z,23.75
2023-05-08T10:08:20.011Z,23.69
2023-05-08T10:10:48.338Z,23.91
2023-05-08T10:13:19.111Z,24.00
2023-05-08T10:15:54.851Z,24.04
2023-05-08T10:18:30.003Z,24.14
2023-05-08T10:21:04.328Z,23.83
2023-05-08T10:23:35.607Z,23.73
2023-05-08T10:26:09.609Z,23.80
2023-05-08T10:28:43.606Z,24.07
2023-05-08T10:31:14.433Z,24.12
2023-05-08T10:33:46.855Z,24.06
2023-05-08T10:36:15.698Z,23.93
2023-05-08T10:38:45.733Z,24.40
2023-05-08T10:41:14.716Z,24.35
2023-05-08T10:43:43.993Z,24.59
2023-05-08T10:46:20.364Z,24.34
2023-05-08T10:48:55.048Z,24.30
2023-05-08T10:51:33.857Z,24.66
2023-05-08T10:54:09.704Z,25.03
2023-05-08T10:56:39.550Z,24.74
2023-05-08T10:59:07.800Z,24.91
2023-05-08T11:01:40.030Z,24.53
2023-05-08T11:04:21.643Z,24.82
2023-05-08T11:06:53.026Z,24.14
2023-05-08T11:09:23.851Z,24.90
2023-05-08T11:12:01.883Z,25.17
2023-05-08T11:14:31.806Z,25.31
2023-05-08T11:17:08.004Z,25.54
2023-05-08T11:19:38.338Z,25.34
2023-05-08T11:22:24.766Z,25.35
2023-05-08T11:25:00.406Z,25.18
2023-05-08T11:27:36.659Z,25.59
2023-05-08T11:30:25.019Z,25.61
2023-05-08T11:33:13.002Z,25.72
2023-05-08T11:35:46.962Z,25.63
2023-05-08T11:38:20.567Z,25.85
2023-05-08T11:40:55.660Z,25.94
2023-05-08T11:43:32.360Z,25.76
2023-05-08T11:46:04.151Z,26.00
2023-05-08T11:48:32.522Z,25.92
2023-05-08T11:51:01.090Z,25.62
2023-05-08T11:53:30.484Z,25.60
2023-05-08T11:56:01.743Z,25.71
2023-05-08T11:58:31.004Z,25.47
2023-05-08T12:00:59.192Z,25.20
2023-05-08T12:03:27.734Z,25.60
2023-05-08T12:05:57.986Z,25.79
2023-05-08T12:08:26.794Z,25.73
2023-05-08T12:10:56.633Z,25.82
2023-05-08T12:13:28.898Z,25.70
2023-05-08T12:15:58.567Z,25.86
2023-05-08T12:18:30.493Z,25.73
2023-05-08T12:21:00.194Z,25.97
2023-05-08T12:23:29.892Z,25.36
2023-05-08T12:26:00.493Z,25.03
2023-05-08T12:28:32.296Z,25.38
2023-05-08T12:31:01.429Z,25.73
2023-05-08T12:33:30.540Z,25.68
2023-05-08T12:35:59.219Z,25.79
2023-05-08T12:38:28.425Z,26.06
2023-05-08T12:40:56.857Z,26.44
2023-05-08T12:43:34.513Z,26.20
2023-05-08T12:46:04.466Z,26.10
2023-05-08T12:48:32.658Z,26.47
2023-05-08T12:51:05.433Z,26.26
2023-05-08T12:53:34.295Z,26.25
2023-05-08T12:56:04.288Z,26.64
2023-05-08T12:58:35.595Z,26.86
2023-05-08T13:01:13.170Z,27.20
2023-05-08T13:03:42.282Z,27.04
2023-05-08T13:06:21.238Z,27.38
2023-05-08T13:08:54.296Z,27.58
2023-05-08T13:11:30.208Z,27.25
2023-05-08T13:13:59.651Z,27.19
2023-05-08T13:16:28.438Z,27.26
2023-05-08T13:18:56.502Z,27.11
2023-05-08T13:21:27.050Z,26.74
2023-05-08T13:23:56.766Z,26.28
2023-05-08T13:26:25.679Z,26.91
2023-05-08T13:28:56.148Z,27.37
2023-05-08T13:31:26.249Z,27.48
2023-05-08T13:33:54.220Z,27.00
2023-05-08T13:36:22.652Z,27.11
2023-05-08T13:38:54.722Z,27.10
2023-05-08T13:41:22.765Z,26.56
2023-05-08T13:43:51.187Z,26.55
2023-05-08T13:46:20.675Z,26.72
2023-05-08T13:48:50.116Z,27.19
2023-05-08T13:51:18.419Z,27.36
2023-05-08T13:53:46.395Z,27.64
2023-05-08T13:56:14.450Z,27.77
2023-05-08T13:58:42.965Z,27.77
2023-05-08T14:01:25.968Z,27.39
2023-05-08T14:03:56.819Z,27.67
2023-05-08T14:06:24.963Z,27.90
2023-05-08T14:08:54.581Z,27.88
2023-05-08T14:11:24.584Z,27.74
2023-05-08T14:13:52.647Z,27.55
2023-05-08T14:16:20.905Z,27.34
2023-05-08T14:18:49.218Z,27.45
2023-05-08T14:21:18.634Z,27.58
2023-05-08T14:23:46.619Z,27.91
2023-05-08T14:26:15.100Z,27.83
2023-05-08T14:28:43.216Z,27.18
2023-05-08T14:31:11.387Z,26.80
2023-05-08T14:33:40.354Z,26.26
2023-05-08T14:36:09.479Z,26.60
2023-05-08T14:38:38.800Z,26.43
2023-05-08T14:41:07.141Z,26.59
2023-05-08T14:43:35.126Z,27.10
2023-05-08T14:46:03.164Z,27.18
2023-05-08T14:48:31.449Z,27.39
2023-05-08T14:51:00.548Z,27.16
2023-05-08T14:53:31.967Z,27.12
2023-05-08T14:56:01.792Z,27.01
2023-05-08T14:58:30.131Z,26.68
2023-05-08T15:00:59.232Z,26.80
2023-05-08T15:03:27.713Z,27.19
2023-05-08T15:05:55.863Z,27.43
2023-05-08T15:08:24.081Z,27.73
2023-05-08T15:10:52.400Z,28.17
2023-05-08T15:13:21.835Z,28.76
2023-05-08T15:15:49.857Z,28.92
2023-05-08T15:18:18.044Z,29.18
2023-05-08T15:20:46.023Z,29.02
2023-05-08T15:23:14.110Z,29.12
2023-05-08T15:25:42.751Z,29.44
2023-05-08T15:28:10.750Z,29.54
2023-05-08T15:30:40.047Z,29.26
2023-05-08T15:33:08.353Z,28.79
2023-05-08T15:35:36.503Z,28.19
2023-05-08T15:38:06.207Z,27.76
2023-05-08T15:40:34.627Z,27.98
2023-05-08T15:43:04.014Z,28.51
2023-05-08T15:45:32.150Z,28.68
2023-05-08T15:48:01.928Z,29.71
2023-05-08T15:50:30.091Z,30.42
2023-05-08T15:52:58.128Z,31.28
2023-05-08T15:55:26.470Z,31.23
2023-05-08T15:57:54.527Z,31.70
2023-05-08T16:00:25.084Z,32.20
2023-05-08T16:02:55.976Z,31.64
2023-05-08T16:05:25.393Z,31.99
2023-05-08T16:07:55.625Z,31.63
2023-05-08T16:10:24.008Z,31.40
2023-05-08T16:12:52.092Z,31.50
2023-05-08T16:15:20.418Z,31.21
2023-05-08T16:17:48.994Z,31.21
2023-05-08T16:20:17.107Z,31.66
2023-05-08T16:22:46.481Z,32.13
2023-05-08T16:25:15.039Z,32.26
2023-05-08T16:27:43.119Z,32.28
2023-05-08T16:30:12.341Z,32.64
2023-05-08T16:32:40.948Z,32.60
2023-05-08T16:35:09.928Z,33.05
2023-05-08T16:37:38.117Z,33.03
2023-05-08T16:40:09.626Z,32.74
2023-05-08T16:42:37.907Z,33.02
2023-05-08T16:45:06.991Z,32.88
2023-05-08T16:47:35.339Z,32.86
2023-05-08T16:50:04.195Z,32.84
2023-05-08T16:52:33.709Z,33.16
2023-05-08T16:55:01.783Z,33.37
2023-05-08T16:57:31.101Z,33.35
2023-05-08T16:59:59.285Z,33.86
2023-05-08T17:02:27.413Z,34.64
2023-05-08T17:04:55.539Z,35.12
2023-05-08T17:07:24.747Z,35.47
2023-05-08T17:09:56.911Z,35.21
2023-05-08T17:12:25.228Z,35.74
2023-05-08T17:14:54.615Z,35.66
2023-05-08T17:17:22.584Z,35.70
2023-05-08T17:19:50.893Z,35.74
2023-05-08T17:22:20.597Z,35.46
2023-05-08T17:24:48.720Z,34.82
2023-05-08T17:27:17.015Z,34.98
2023-05-08T17:29:45.091Z,35.18
2023-05-08T17:32:14.787Z,35.55
2023-05-08T17:34:43.118Z,35.78
2023-05-08T17:37:13.428Z,35.43
2023-05-08T17:39:41.512Z,35.13
2023-05-08T17:42:09.980Z,35.08
2023-05-08T17:44:37.994Z,34.94
2023-05-08T17:47:06.342Z,34.88
2023-05-08T17:49:35.914Z,34.19
2023-05-08T17:52:05.495Z,33.26
2023-05-08T17:54:33.741Z,32.24
2023-05-08T17:57:02.319Z,31.31
2023-05-08T17:59:30.321Z,30.53
2023-05-08T18:01:58.396Z,29.92
2023-05-08T18:04:27.274Z,29.30
2023-05-08T18:06:56.819Z,28.76
2023-05-08T18:09:24.860Z,28.25
2023-05-08T18:11:53.543Z,27.84
2023-05-08T18:14:21.569Z,27.48
2023-05-08T18:16:49.617Z,27.09
2023-05-08T18:19:18.202Z,26.72
2023-05-08T18:21:46.308Z,26.48
2023-05-08T18:24:15.729Z,26.21
2023-05-08T18:26:44.015Z,25.77
2023-05-08T18:29:12.141Z,25.35
2023-05-08T18:31:40.309Z,24.99
2023-05-08T18:34:08.668Z,24.65
2023-05-08T18:36:36.813Z,24.37
2023-05-08T18:39:05.125Z,24.03
2023-05-08T18:41:34.777Z,23.70
2023-05-08T18:44:05.094Z,23.40
2023-05-08T18:46:33.398Z,23.17
2023-05-08T18:49:02.704Z,22.89
2023-05-08T18:51:31.005Z,22.63
2023-05-08T18:54:00.088Z,22.42
2023-05-08T18:56:28.849Z,22.25
2023-05-08T18:59:00.032Z,22.05
2023-05-08T19:01:28.701Z,21.83
2023-05-08T19:03:56.830Z,21.62
2023-05-08T19:06:24.940Z,21.42
2023-05-08T19:08:53.256Z,21.25
2023-05-08T19:11:21.695Z,21.09
2023-05-08T19:13:51.946Z,20.91
2023-05-08T19:16:21.937Z,20.73
2023-05-08T19:18:50.706Z,20.57
2023-05-08T19:21:18.855Z,20.41
2023-05-08T19:23:47.544Z,20.25
2023-05-08T19:26:15.697Z,20.12
2023-05-08T19:28:43.706Z,19.97
2023-05-08T19:31:12.056Z,19.89
2023-05-08T19:33:41.390Z,19.77
2023-05-08T19:36:09.380Z,19.68
2023-05-08T19:38:40.071Z,19.59
2023-05-08T19:41:08.257Z,19.43
2023-05-08T19:43:37.104Z,19.29
2023-05-08T19:46:05.469Z,19.14
2023-05-08T19:48:33.825Z,19.04
2023-05-08T19:51:07.658Z,18.93
2023-05-08T19:53:36.291Z,18.82
2023-05-08T19:56:04.607Z,18.66
2023-05-08T19:58:32.807Z,18.52
2023-05-08T20:01:01.069Z,18.39
2023-05-08T20:03:29.477Z,18.27
2023-05-08T20:05:57.639Z,18.14
2023-05-08T20:08:26.973Z,18.01
2023-05-08T20:10:55.232Z,17.88
2023-05-08T20:13:23.451Z,17.84
2023-05-08T20:15:51.637Z,17.75
2023-05-08T20:18:19.920Z,17.68
2023-05-08T20:20:49.003Z,17.63
2023-05-08T20:23:17.027Z,17.55
2023-05-08T20:25:47.749Z,17.44
2023-05-08T20:28:15.935Z,17.34
2023-05-08T20:30:44.222Z,17.24
2023-05-08T20:33:12.634Z,17.19
2023-05-08T20:35:40.795Z,17.16
2023-05-08T20:38:09.118Z,17.11
2023-05-08T20:40:37.729Z,17.05
2023-05-08T20:43:07.281Z,17.02
2023-05-08T20:45:35.290Z,16.94
2023-05-08T20:48:04.094Z,16.88
2023-05-08T20:50:32.434Z,16.88
2023-05-08T20:53:00.493Z,16.80
2023-05-08T20:55:28.865Z,16.74
2023-05-08T20:57:57.773Z,16.67
2023-05-08T21:00:27.099Z,16.60
2023-05-08T21:02:56.056Z,16.53
2023-05-08T21:05:24.359Z,16.45
2023-05-08T21:07:58.376Z,16.41
2023-05-08T21:10:29.174Z,16.35
2023-05-08T21:12:57.523Z,16.29
2023-05-08T21:15:27.541Z,16.22
2023-05-08T21:17:56.993Z,16.15
2023-05-08T21:20:25.144Z,16.09
2023-05-08T21:22:53.326Z,16.02
2023-05-08T21:25:22.235Z,15.95
2023-05-08T21:27:50.287Z,15.86
2023-05-08T21:30:18.757Z,15.76
2023-05-08T21:32:48.441Z,15.66
2023-05-08T21:35:17.509Z,15.57
2023-05-08T21:37:45.799Z,15.48
2023-05-08T21:40:14.139Z,15.41
2023-05-08T21:42:42.212Z,15.36
2023-05-08T21:45:11.405Z,15.33
2023-05-08T21:47:39.869Z,15.32
2023-05-08T21:50:10.674Z,15.26
2023-05-08T21:52:38.725Z,15.19
2023-05-08T21:55:08.734Z,15.08
2023-05-08T21:57:37.316Z,14.90
2023-05-08T22:00:06.771Z,14.86
2023-05-08T22:02:35.185Z,14.85
2023-05-08T22:05:04.437Z,14.81
2023-05-08T22:07:33.866Z,14.79
2023-05-08T22:10:02.097Z,14.78
2023-05-08T22:12:30.358Z,14.75
2023-05-08T22:14:58.355Z,14.72
2023-05-08T22:17:26.391Z,14.69
2023-05-08T22:19:54.706Z,14.59
2023-05-08T22:22:23.015Z,14.56
2023-05-08T22:24:55.068Z,14.51
2023-05-08T22:27:23.478Z,14.45
2023-05-08T22:29:51.580Z,14.41
2023-05-08T22:32:19.630Z,14.38
2023-05-08T22:34:49.871Z,14.35
2023-05-08T22:37:18.101Z,14.32
2023-05-08T22:39:46.081Z,14.30
2023-05-08T22:42:16.108Z,14.29
2023-05-08T22:44:44.553Z,14.28
2023-05-08T22:47:13.248Z,14.25
2023-05-08T22:49:42.934Z,14.25
2023-05-08T22:52:13.422Z,14.22
2023-05-08T22:54:41.817Z,14.17
2023-05-08T22:57:09.905Z,14.13
2023-05-08T22:59:39.195Z,14.09
2023-05-08T23:02:07.601Z,14.07
2023-05-08T23:04:35.797Z,14.07
2023-05-08T23:07:03.900Z,14.00
2023-05-08T23:09:32.256Z,13.98
2023-05-08T23:12:00.398Z,13.96
2023-05-08T23:14:28.532Z,13.93
2023-05-08T23:16:58.300Z,13.88
2023-05-08T23:19:26.469Z,13.86
2023-05-08T23:21:54.459Z,13.84
2023-05-08T23:24:22.755Z,13.87
2023-05-08T23:26:52.727Z,13.85
2023-05-08T23:29:20.893Z,13.84
2023-05-08T23:31:49.368Z,13.77
2023-05-08T23:34:18.749Z,13.75
2023-05-08T23:36:46.915Z,13.72
2023-05-08T23:39:15.204Z,13.70
2023-05-08T23:41:43.279Z,13.71
2023-05-08T23:44:11.527Z,13.70
2023-05-08T23:46:39.915Z,13.66
2023-05-08T23:49:08.205Z,13.63
2023-05-08T23:51:37.697Z,13.61
2023-05-08T23:54:06.955Z,13.59
2023-05-08T23:56:34.940Z,13.55
2023-05-08T23:59:02.943Z,13.53
